Flight Track Log - Related Links

Times and Time Zones

All times are in EST time to prevent confusion due to time zone crossing. See the N311AN flight status page for this flight to view local times or setup timezone preferences in your user account.

Time Position Orientation Groundspeed Altitude Reporting Facility
EST Latitude Longitude Course Direction KTS MPH feet Rate Location/Type
Mon 09:29:28 PM 39.2833 -76.4000 270° West 106 122 1,400  Level Potomac TRACON
Mon 09:30:34 PM 39.2833 -76.4500 270° West 105 121 2,500 857 Climbing Potomac TRACON
Mon 09:31:34 PM 39.3000 -76.4833 303° West 113 130 3,200 850 Climbing Potomac TRACON
Mon 09:32:34 PM 39.3000 -76.5167 270° West 127 146 4,200 1,000 Climbing Potomac TRACON
Mon 09:33:28 PM 39.3167 -76.5500 303° West 115 132 5,100 950 Climbing Potomac TRACON
Mon 09:34:34 PM 39.3167 -76.6000 270° West 108 124 6,100 864 Climbing Potomac TRACON
Mon 09:35:40 PM 39.3000 -76.6333 237° Southwest 114 131 7,000 857 Climbing Potomac TRACON
Mon 09:36:40 PM 39.3000 -76.6667 270° West 113 130 7,900 550 Climbing Potomac TRACON
Mon 09:37:40 PM 39.2833 -76.7167 247° West 127 146 8,100 400 Climbing Potomac TRACON
Mon 09:38:40 PM 39.2833 -76.7667 270° West 123 142 8,700 600 Climbing Potomac TRACON
Mon 09:39:40 PM 39.2833 -76.8000 270° West 117 135 9,300 650 Climbing Potomac TRACON
Mon 09:40:40 PM 39.2667 -76.8333 237° Southwest 112 129 10,000 381 Climbing Potomac TRACON
Mon 09:41:46 PM 39.2833 -76.9000 288° West 127 146 10,100  Climbing Potomac TRACON
Mon 09:42:46 PM 39.2833 -76.9333 270° West 137 158 10,000 190 Descending Potomac TRACON
Mon 09:43:52 PM 39.2667 -76.9833 247° West 142 163 10,500 667 Climbing Potomac TRACON
Mon 09:44:52 PM 39.2333 -77.0167 218° Southwest 123 142 11,400 789 Climbing Potomac TRACON
Mon 09:45:46 PM 39.2167 -77.0500 237° Southwest 116 133 12,000 650 Climbing Potomac TRACON
Mon 09:46:52 PM 39.2000 -77.0833 237° Southwest 123 142 12,700 762 Climbing Potomac TRACON
Mon 09:47:52 PM 39.1833 -77.1333 247° West 122 140 13,600 714 Climbing Potomac TRACON
Mon 09:48:58 PM 39.1667 -77.1667 237° Southwest 134 154 14,200 714 Climbing Potomac TRACON
Mon 09:49:58 PM 39.1333 -77.1833 201° Southwest 125 144 15,100 850 Climbing Potomac TRACON
Mon 09:50:58 PM 39.1000 -77.2167 218° Southwest 121 139 15,900 762 Climbing Potomac TRACON
Mon 09:52:04 PM 39.0833 -77.2500 237° Southwest 115 132 16,700 526 Climbing Potomac TRACON
Mon 09:52:52 PM 39.0833 -77.2833 270° West 126 145 16,900 118 Climbing Potomac TRACON
Mon 09:53:46 PM 39.0667 -77.3333 247° West 148 170 16,900 53 Level Potomac TRACON
Mon 09:54:46 PM 39.0167 -77.3333 180° South 167 192 17,000  Climbing Potomac TRACON
Mon 09:55:46 PM 38.9833 -77.3500 201° Southwest 167 192 16,900 -95 Descending Potomac TRACON
Mon 09:56:52 PM 38.9333 -77.3667 195° South 170 196 16,800  Descending Potomac TRACON
Mon 09:57:58 PM 38.8833 -77.4000 207° Southwest 161 185 16,900 143 Climbing Potomac TRACON
Mon 09:58:58 PM 38.8500 -77.4167 201° Southwest 160 184 17,100 350 Climbing Potomac TRACON
Mon 09:59:58 PM 38.8000 -77.4333 195° South 153 176 17,600 368 Climbing Potomac TRACON
Mon 10:00:52 PM 38.7667 -77.4500 201° Southwest 151 174 17,800 150 Climbing Potomac TRACON
Mon 10:01:58 PM 38.7167 -77.4667 195° South 152 175 17,900 50 Climbing Potomac TRACON
Mon 10:02:52 PM 38.6833 -77.4833 201° Southwest 166 191 17,900  Level Potomac TRACON
Mon 10:03:58 PM 38.6333 -77.5000 195° South 167 192 17,900 57 Level Potomac TRACON
Mon 10:04:38 PM 38.6083 -77.5100 197° South 165 190 18,000  Climbing Washington Center
Mon 10:05:38 PM 38.5642 -77.5272 197° South 170 196 17,900 -50 Descending Washington Center
Mon 10:06:39 PM 38.5181 -77.5447 197° South 165 190 17,900 49 Level Washington Center
Mon 10:07:40 PM 38.4739 -77.5647 200° South 165 190 18,000  Climbing Washington Center
Mon 10:08:39 PM 38.4278 -77.5822 197° South 165 190 17,900 -101 Descending Washington Center
Mon 10:09:39 PM 38.3817 -77.6019 199° South 170 196 17,800  Descending Washington Center
Mon 10:10:39 PM 38.3436 -77.6328 212° Southwest 170 196 17,900 101 Climbing Washington Center
Mon 10:11:38 PM 38.3075 -77.6636 214° Southwest 165 190 18,000 50 Climbing Washington Center
Mon 10:12:38 PM 38.2758 -77.6969 220° Southwest 160 184 18,000  Level Washington Center
Mon 10:13:39 PM 38.2417 -77.7306 218° Southwest 160 184 18,000  Level Washington Center
Mon 10:14:40 PM 38.2078 -77.7692 222° Southwest 160 184 18,000  Level Washington Center
Mon 10:15:39 PM 38.1739 -77.8025 218° Southwest 160 184 18,000  Level Washington Center
Mon 10:16:39 PM 38.1397 -77.8411 222° Southwest 160 184 18,000  Level Washington Center
Mon 10:17:38 PM 38.1056 -77.8769 220° Southwest 160 184 18,000  Level Washington Center
Mon 10:18:38 PM 38.0694 -77.9103 216° Southwest 160 184 18,000 -50 Level Washington Center
Mon 10:19:39 PM 38.0375 -77.9486 223° Southwest 160 184 17,900 -49 Descending Washington Center
Mon 10:20:40 PM 37.9994 -77.9792 212° Southwest 160 184 17,900 50 Level Washington Center
Mon 10:21:40 PM 37.9653 -78.0150 220° Southwest 160 184 18,000 51 Climbing Washington Center
Mon 10:22:38 PM 37.9333 -78.0508 222° Southwest 160 184 18,000  Level Washington Center
Mon 10:23:39 PM 37.9011 -78.0867 221° Southwest 160 184 18,000 49 Level Washington Center
Mon 10:24:40 PM 37.8692 -78.1225 222° Southwest 160 184 18,100 99 Climbing Washington Center
Mon 10:25:40 PM 37.8372 -78.1581 221° Southwest 160 184 18,200  Climbing Washington Center
Mon 10:26:38 PM 37.8072 -78.1939 223° Southwest 160 184 18,100 -100 Descending Washington Center
Mon 10:27:40 PM 37.7731 -78.2322 222° Southwest 160 184 18,000 -49 Descending Washington Center
Mon 10:28:41 PM 37.7367 -78.2728 221° Southwest 160 184 18,000  Level Washington Center
Mon 10:29:40 PM 37.7025 -78.3058 217° Southwest 160 184 18,000  Level Washington Center
Mon 10:30:38 PM 37.6703 -78.3439 223° Southwest 160 184 18,000  Level Washington Center
Mon 10:31:38 PM 37.6361 -78.3822 222° Southwest 160 184 18,000  Level Washington Center
Mon 10:32:40 PM 37.6061 -78.4125 219° Southwest 160 184 18,000  Level Washington Center
Mon 10:33:38 PM 37.5719 -78.4506 221° Southwest 160 184 18,000  Level Washington Center
Mon 10:34:39 PM 37.5378 -78.4858 219° Southwest 160 184 18,000 -49 Level Washington Center
Mon 10:35:40 PM 37.5033 -78.5239 221° Southwest 160 184 17,900 -50 Descending Washington Center
Mon 10:36:38 PM 37.4692 -78.5644 223° Southwest 160 184 17,900  Level Washington Center
Mon 10:37:38 PM 37.4347 -78.6022 221° Southwest 160 184 17,900  Level Washington Center
Mon 10:38:39 PM 37.4025 -78.6403 223° Southwest 160 184 17,900 49 Level Washington Center
Mon 10:39:40 PM 37.3703 -78.6756 221° Southwest 160 184 18,000 99 Climbing Washington Center
Mon 10:40:40 PM 37.3422 -78.7083 223° Southwest 160 184 18,100  Climbing Washington Center
Mon 10:41:38 PM 37.3100 -78.7461 223° Southwest 165 190 18,000 -51 Descending Washington Center
Mon 10:42:38 PM 37.2756 -78.7839 221° Southwest 165 190 18,000  Level Washington Center
Mon 10:43:39 PM 37.2433 -78.8217 223° Southwest 165 190 18,000 49 Level Washington Center
Mon 10:44:40 PM 37.2089 -78.8647 225° Southwest 165 190 18,100 50 Climbing Washington Center
Mon 10:45:38 PM 37.1767 -78.8997 221° Southwest 170 196 18,100  Level Washington Center
Mon 10:46:40 PM 37.1442 -78.9400 225° Southwest 170 196 18,100  Level Washington Center
Mon 10:47:38 PM 37.1097 -78.9775 221° Southwest 170 196 18,100 -50 Level Washington Center
Mon 10:48:39 PM 37.0772 -79.0153 223° Southwest 170 196 18,000 -49 Descending Washington Center
Mon 10:49:41 PM 37.0472 -79.0503 223° Southwest 170 196 18,000  Level Washington Center
Mon 10:50:38 PM 37.0106 -79.0850 217° Southwest 170 196 18,000 -50 Level Washington Center
Mon 10:51:40 PM 36.9742 -79.1225 219° Southwest 170 196 17,900 -295 Descending Washington Center
Mon 10:52:40 PM 36.9372 -79.1650 223° Southwest 170 196 17,400 -400 Descending Washington Center
Mon 10:53:40 PM 36.8986 -79.2047 219° Southwest 170 196 17,100 -356 Descending Washington Center
Mon 10:54:38 PM 36.8619 -79.2469 223° Southwest 175 201 16,700 -454 Descending Washington Center
Mon 10:55:39 PM 36.8250 -79.2894 223° Southwest 175 201 16,200 -446 Descending Washington Center
Mon 10:56:39 PM 36.7883 -79.3317 223° Southwest 175 201 15,800 -454 Descending Washington Center
Mon 10:57:38 PM 36.7558 -79.3692 223° Southwest 175 201 15,300 -403 Descending Washington Center
Mon 10:58:38 PM 36.7211 -79.4089 223° Southwest 170 196 15,000 -347 Descending Washington Center
Mon 10:59:39 PM 36.6844 -79.4511 223° Southwest 170 196 14,600 -393 Descending Washington Center
Mon 11:00:40 PM 36.6517 -79.4908 224° Southwest 170 196 14,200 -393 Descending Washington Center
Mon 11:02:00 PM 36.5989 -79.5276 209° Southwest  Level FlightAware Approximate
Mon 11:09:00 PM 36.3547 -79.7789 219° Southwest  Level FlightAware Approximate
Mon 11:10:00 PM 36.3194 -79.8142 219° Southwest  Level FlightAware Approximate
Mon 11:11:00 PM 36.2840 -79.8495 219° Southwest  Level FlightAware Approximate
Mon 11:12:00 PM 36.2487 -79.8848 219° Southwest  Level FlightAware Approximate
Mon 11:13:00 PM 36.2134 -79.9200 219° Southwest  Level FlightAware Approximate
Mon 11:14:00 PM 36.1781 -79.9553 219° Southwest  Level FlightAware Approximate
Mon 11:15:00 PM 36.1428 -79.9906 219° Southwest  Level FlightAware Approximate
Mon 11:16:00 PM 36.1076 -80.0258 219° Southwest  Level FlightAware Approximate
Mon 11:17:00 PM 36.0723 -80.0611 219° Southwest  Level FlightAware Approximate

Login

Don't have an account? Register now (free) for customized features, flight alerts, and more!